sensor_id;sensor_type;location;lat;lon;timestamp;P1;durP1;ratioP1;P2;durP2;ratioP2
62707;SDS011;48769;51.624;5.886;2023-08-31T00:55:00;8.85;;;6.95;;
62707;SDS011;48769;51.624;5.886;2023-08-31T00:57:30;13.20;;;7.13;;
62707;SDS011;48769;51.624;5.886;2023-08-31T00:59:55;11.52;;;7.85;;
62707;SDS011;48769;51.624;5.886;2023-08-31T01:05:11;15.10;;;8.38;;
62707;SDS011;48769;51.624;5.886;2023-08-31T01:10:29;14.75;;;9.07;;
62707;SDS011;48769;51.624;5.886;2023-08-31T01:13:03;12.00;;;8.73;;
62707;SDS011;48769;51.624;5.886;2023-08-31T01:15:45;14.70;;;10.57;;
62707;SDS011;48769;51.624;5.886;2023-08-31T01:18:16;14.77;;;10.50;;
62707;SDS011;48769;51.624;5.886;2023-08-31T01:23:18;15.23;;;10.35;;
62707;SDS011;48769;51.624;5.886;2023-08-31T01:25:45;15.82;;;11.15;;
62707;SDS011;48769;51.624;5.886;2023-08-31T01:28:13;14.73;;;12.05;;
62707;SDS011;48769;51.624;5.886;2023-08-31T01:30:39;16.27;;;12.13;;
62707;SDS011;48769;51.624;5.886;2023-08-31T01:33:04;16.27;;;11.23;;
62707;SDS011;48769;51.624;5.886;2023-08-31T01:35:34;13.77;;;11.38;;
62707;SDS011;48769;51.624;5.886;2023-08-31T01:38:06;19.70;;;11.93;;
62707;SDS011;48769;51.624;5.886;2023-08-31T01:40:44;16.23;;;11.10;;
62707;SDS011;48769;51.624;5.886;2023-08-31T01:43:23;15.00;;;11.48;;
62707;SDS011;48769;51.624;5.886;2023-08-31T01:45:48;14.63;;;11.57;;
62707;SDS011;48769;51.624;5.886;2023-08-31T01:48:15;16.08;;;11.27;;
62707;SDS011;48769;51.624;5.886;2023-08-31T01:50:41;13.38;;;11.20;;
62707;SDS011;48769;51.624;5.886;2023-08-31T01:53:06;19.10;;;12.98;;
62707;SDS011;48769;51.624;5.886;2023-08-31T01:55:32;19.63;;;12.80;;
62707;SDS011;48769;51.624;5.886;2023-08-31T01:57:57;16.40;;;13.25;;
62707;SDS011;48769;51.624;5.886;2023-08-31T02:00:23;18.83;;;13.93;;
62707;SDS011;48769;51.624;5.886;2023-08-31T02:02:48;18.02;;;13.48;;
62707;SDS011;48769;51.624;5.886;2023-08-31T02:05:14;19.90;;;13.63;;
62707;SDS011;48769;51.624;5.886;2023-08-31T02:07:39;20.25;;;13.73;;
62707;SDS011;48769;51.624;5.886;2023-08-31T02:10:05;20.15;;;14.55;;
62707;SDS011;48769;51.624;5.886;2023-08-31T02:12:31;18.00;;;14.57;;
62707;SDS011;48769;51.624;5.886;2023-08-31T02:14:57;24.48;;;15.05;;
62707;SDS011;48769;51.624;5.886;2023-08-31T02:17:22;18.05;;;14.90;;
62707;SDS011;48769;51.624;5.886;2023-08-31T02:19:48;18.00;;;14.45;;
62707;SDS011;48769;51.624;5.886;2023-08-31T02:22:13;16.70;;;14.70;;
62707;SDS011;48769;51.624;5.886;2023-08-31T02:24:38;16.80;;;14.13;;
62707;SDS011;48769;51.624;5.886;2023-08-31T02:27:03;18.35;;;14.80;;
62707;SDS011;48769;51.624;5.886;2023-08-31T02:29:29;19.48;;;15.52;;
62707;SDS011;48769;51.624;5.886;2023-08-31T02:31:54;18.40;;;15.25;;
62707;SDS011;48769;51.624;5.886;2023-08-31T02:34:21;19.17;;;14.18;;
62707;SDS011;48769;51.624;5.886;2023-08-31T02:36:46;19.70;;;15.45;;
62707;SDS011;48769;51.624;5.886;2023-08-31T02:39:11;21.50;;;16.48;;
62707;SDS011;48769;51.624;5.886;2023-08-31T02:41:37;23.00;;;15.52;;
62707;SDS011;48769;51.624;5.886;2023-08-31T02:44:03;18.95;;;15.20;;
62707;SDS011;48769;51.624;5.886;2023-08-31T02:46:29;19.38;;;15.43;;
62707;SDS011;48769;51.624;5.886;2023-08-31T02:48:54;24.30;;;16.23;;
62707;SDS011;48769;51.624;5.886;2023-08-31T02:51:19;22.83;;;16.00;;
62707;SDS011;48769;51.624;5.886;2023-08-31T02:53:45;18.88;;;15.07;;
62707;SDS011;48769;51.624;5.886;2023-08-31T02:56:10;19.52;;;15.52;;
62707;SDS011;48769;51.624;5.886;2023-08-31T02:58:35;23.52;;;15.93;;
62707;SDS011;48769;51.624;5.886;2023-08-31T03:01:07;19.77;;;16.17;;
62707;SDS011;48769;51.624;5.886;2023-08-31T03:03:36;20.17;;;15.73;;
62707;SDS011;48769;51.624;5.886;2023-08-31T03:06:01;17.92;;;15.20;;
62707;SDS011;48769;51.624;5.886;2023-08-31T03:08:27;21.70;;;16.05;;
62707;SDS011;48769;51.624;5.886;2023-08-31T03:10:52;22.92;;;15.65;;
62707;SDS011;48769;51.624;5.886;2023-08-31T03:13:18;21.85;;;16.02;;
62707;SDS011;48769;51.624;5.886;2023-08-31T03:15:43;22.85;;;15.85;;
62707;SDS011;48769;51.624;5.886;2023-08-31T03:18:08;22.77;;;16.88;;
62707;SDS011;48769;51.624;5.886;2023-08-31T03:20:34;22.63;;;17.90;;
62707;SDS011;48769;51.624;5.886;2023-08-31T03:22:59;23.08;;;16.40;;
62707;SDS011;48769;51.624;5.886;2023-08-31T03:25:24;23.33;;;16.77;;
62707;SDS011;48769;51.624;5.886;2023-08-31T03:27:52;22.02;;;16.75;;
62707;SDS011;48769;51.624;5.886;2023-08-31T03:30:17;20.55;;;16.98;;
62707;SDS011;48769;51.624;5.886;2023-08-31T03:32:43;24.00;;;17.73;;
62707;SDS011;48769;51.624;5.886;2023-08-31T03:35:08;23.55;;;16.88;;
62707;SDS011;48769;51.624;5.886;2023-08-31T03:37:33;28.00;;;17.52;;
62707;SDS011;48769;51.624;5.886;2023-08-31T03:39:59;26.63;;;18.88;;
62707;SDS011;48769;51.624;5.886;2023-08-31T03:42:24;21.73;;;18.40;;
62707;SDS011;48769;51.624;5.886;2023-08-31T03:44:49;24.50;;;19.00;;
62707;SDS011;48769;51.624;5.886;2023-08-31T03:47:15;24.85;;;18.38;;
62707;SDS011;48769;51.624;5.886;2023-08-31T03:49:40;22.80;;;18.25;;
62707;SDS011;48769;51.624;5.886;2023-08-31T03:52:05;26.75;;;18.55;;
62707;SDS011;48769;51.624;5.886;2023-08-31T03:54:30;23.90;;;19.58;;
62707;SDS011;48769;51.624;5.886;2023-08-31T03:56:56;25.75;;;19.15;;
62707;SDS011;48769;51.624;5.886;2023-08-31T03:59:21;26.20;;;19.23;;
62707;SDS011;48769;51.624;5.886;2023-08-31T04:01:46;29.70;;;20.52;;
62707;SDS011;48769;51.624;5.886;2023-08-31T04:04:12;27.90;;;20.67;;
62707;SDS011;48769;51.624;5.886;2023-08-31T04:06:37;24.70;;;20.80;;
62707;SDS011;48769;51.624;5.886;2023-08-31T04:09:02;24.15;;;20.73;;
62707;SDS011;48769;51.624;5.886;2023-08-31T04:11:28;27.85;;;20.55;;
62707;SDS011;48769;51.624;5.886;2023-08-31T04:13:53;27.33;;;20.38;;
62707;SDS011;48769;51.624;5.886;2023-08-31T04:16:18;30.38;;;20.85;;
62707;SDS011;48769;51.624;5.886;2023-08-31T04:18:44;30.23;;;21.17;;
62707;SDS011;48769;51.624;5.886;2023-08-31T04:21:12;28.05;;;22.23;;
62707;SDS011;48769;51.624;5.886;2023-08-31T04:23:38;26.50;;;20.77;;
62707;SDS011;48769;51.624;5.886;2023-08-31T04:26:13;28.92;;;21.88;;
62707;SDS011;48769;51.624;5.886;2023-08-31T04:28:39;28.15;;;21.52;;
62707;SDS011;48769;51.624;5.886;2023-08-31T04:31:05;28.25;;;22.33;;
62707;SDS011;48769;51.624;5.886;2023-08-31T04:33:32;27.48;;;20.80;;
62707;SDS011;48769;51.624;5.886;2023-08-31T04:35:59;30.23;;;22.65;;
62707;SDS011;48769;51.624;5.886;2023-08-31T04:38:24;30.92;;;22.92;;
62707;SDS011;48769;51.624;5.886;2023-08-31T04:40:49;29.83;;;22.13;;
62707;SDS011;48769;51.624;5.886;2023-08-31T04:43:15;27.80;;;22.55;;
62707;SDS011;48769;51.624;5.886;2023-08-31T04:45:40;29.38;;;22.77;;
62707;SDS011;48769;51.624;5.886;2023-08-31T04:48:05;29.38;;;22.95;;
62707;SDS011;48769;51.624;5.886;2023-08-31T04:50:31;28.05;;;22.15;;
62707;SDS011;48769;51.624;5.886;2023-08-31T04:52:59;27.23;;;22.02;;
62707;SDS011;48769;51.624;5.886;2023-08-31T04:55:25;27.33;;;22.65;;
62707;SDS011;48769;51.624;5.886;2023-08-31T04:57:50;33.97;;;23.13;;
62707;SDS011;48769;51.624;5.886;2023-08-31T05:00:16;30.02;;;22.52;;
62707;SDS011;48769;51.624;5.886;2023-08-31T05:02:41;29.55;;;22.65;;
62707;SDS011;48769;51.624;5.886;2023-08-31T05:05:08;30.90;;;23.80;;
62707;SDS011;48769;51.624;5.886;2023-08-31T05:07:33;30.70;;;22.58;;
62707;SDS011;48769;51.624;5.886;2023-08-31T05:09:59;31.33;;;22.30;;
62707;SDS011;48769;51.624;5.886;2023-08-31T05:12:24;32.55;;;24.02;;
62707;SDS011;48769;51.624;5.886;2023-08-31T05:14:49;26.40;;;21.02;;
62707;SDS011;48769;51.624;5.886;2023-08-31T05:17:15;33.05;;;21.63;;
62707;SDS011;48769;51.624;5.886;2023-08-31T05:19:40;30.88;;;22.30;;
62707;SDS011;48769;51.624;5.886;2023-08-31T05:22:05;24.33;;;20.60;;
62707;SDS011;48769;51.624;5.886;2023-08-31T05:24:31;29.83;;;21.25;;
62707;SDS011;48769;51.624;5.886;2023-08-31T05:26:56;27.17;;;19.90;;
62707;SDS011;48769;51.624;5.886;2023-08-31T05:29:21;26.70;;;19.90;;
62707;SDS011;48769;51.624;5.886;2023-08-31T05:31:47;24.33;;;19.20;;
62707;SDS011;48769;51.624;5.886;2023-08-31T05:34:15;25.13;;;19.27;;
62707;SDS011;48769;51.624;5.886;2023-08-31T05:36:41;23.40;;;18.17;;
62707;SDS011;48769;51.624;5.886;2023-08-31T05:39:06;27.15;;;19.05;;
62707;SDS011;48769;51.624;5.886;2023-08-31T05:41:33;22.02;;;17.27;;
62707;SDS011;48769;51.624;5.886;2023-08-31T05:43:58;26.02;;;17.08;;
62707;SDS011;48769;51.624;5.886;2023-08-31T05:46:23;21.35;;;17.23;;
62707;SDS011;48769;51.624;5.886;2023-08-31T05:48:49;20.80;;;16.63;;
62707;SDS011;48769;51.624;5.886;2023-08-31T05:51:14;24.63;;;15.65;;
62707;SDS011;48769;51.624;5.886;2023-08-31T05:53:39;24.10;;;16.13;;
62707;SDS011;48769;51.624;5.886;2023-08-31T05:56:05;18.40;;;14.85;;
62707;SDS011;48769;51.624;5.886;2023-08-31T05:58:32;16.80;;;15.02;;
62707;SDS011;48769;51.624;5.886;2023-08-31T06:00:59;19.00;;;15.32;;
62707;SDS011;48769;51.624;5.886;2023-08-31T06:03:25;20.92;;;15.02;;
62707;SDS011;48769;51.624;5.886;2023-08-31T06:05:51;22.10;;;15.52;;
62707;SDS011;48769;51.624;5.886;2023-08-31T06:08:17;19.40;;;14.18;;
62707;SDS011;48769;51.624;5.886;2023-08-31T06:10:42;19.60;;;14.32;;
62707;SDS011;48769;51.624;5.886;2023-08-31T06:13:07;18.52;;;14.55;;
62707;SDS011;48769;51.624;5.886;2023-08-31T06:15:32;19.65;;;13.00;;
62707;SDS011;48769;51.624;5.886;2023-08-31T06:17:58;15.43;;;11.80;;
62707;SDS011;48769;51.624;5.886;2023-08-31T06:20:23;16.52;;;12.57;;
62707;SDS011;48769;51.624;5.886;2023-08-31T06:22:48;14.57;;;11.88;;
62707;SDS011;48769;51.624;5.886;2023-08-31T06:25:14;11.95;;;10.18;;
62707;SDS011;48769;51.624;5.886;2023-08-31T06:27:41;14.98;;;11.80;;
62707;SDS011;48769;51.624;5.886;2023-08-31T06:30:08;14.75;;;10.75;;
62707;SDS011;48769;51.624;5.886;2023-08-31T06:32:34;13.98;;;10.82;;
62707;SDS011;48769;51.624;5.886;2023-08-31T06:34:59;12.68;;;9.73;;
62707;SDS011;48769;51.624;5.886;2023-08-31T06:37:24;15.10;;;9.80;;
62707;SDS011;48769;51.624;5.886;2023-08-31T06:39:50;12.00;;;9.05;;
62707;SDS011;48769;51.624;5.886;2023-08-31T06:42:15;17.10;;;9.73;;
62707;SDS011;48769;51.624;5.886;2023-08-31T06:44:40;12.45;;;9.35;;
62707;SDS011;48769;51.624;5.886;2023-08-31T06:47:06;16.58;;;10.05;;
62707;SDS011;48769;51.624;5.886;2023-08-31T06:49:31;12.63;;;9.40;;
62707;SDS011;48769;51.624;5.886;2023-08-31T06:51:58;14.73;;;8.98;;
62707;SDS011;48769;51.624;5.886;2023-08-31T06:54:25;14.70;;;9.70;;
62707;SDS011;48769;51.624;5.886;2023-08-31T06:56:50;12.30;;;9.35;;
62707;SDS011;48769;51.624;5.886;2023-08-31T06:59:15;9.68;;;8.35;;
62707;SDS011;48769;51.624;5.886;2023-08-31T07:01:41;11.50;;;9.13;;
62707;SDS011;48769;51.624;5.886;2023-08-31T07:04:06;14.52;;;9.38;;
62707;SDS011;48769;51.624;5.886;2023-08-31T07:06:33;10.70;;;8.45;;
62707;SDS011;48769;51.624;5.886;2023-08-31T07:08:59;14.45;;;8.43;;
62707;SDS011;48769;51.624;5.886;2023-08-31T07:11:25;17.38;;;8.80;;
62707;SDS011;48769;51.624;5.886;2023-08-31T07:13:51;14.45;;;7.63;;
62707;SDS011;48769;51.624;5.886;2023-08-31T07:16:17;12.65;;;8.10;;
62707;SDS011;48769;51.624;5.886;2023-08-31T07:18:43;10.57;;;7.85;;
62707;SDS011;48769;51.624;5.886;2023-08-31T07:21:08;8.73;;;7.20;;
62707;SDS011;48769;51.624;5.886;2023-08-31T07:23:33;12.82;;;7.07;;
62707;SDS011;48769;51.624;5.886;2023-08-31T07:25:59;10.73;;;6.65;;
62707;SDS011;48769;51.624;5.886;2023-08-31T07:28:25;10.43;;;6.63;;
62707;SDS011;48769;51.624;5.886;2023-08-31T07:31:00;8.68;;;6.40;;
62707;SDS011;48769;51.624;5.886;2023-08-31T07:33:32;7.53;;;5.63;;
62707;SDS011;48769;51.624;5.886;2023-08-31T07:35:59;10.20;;;6.07;;
62707;SDS011;48769;51.624;5.886;2023-08-31T07:38:25;10.52;;;6.05;;
62707;SDS011;48769;51.624;5.886;2023-08-31T07:40:52;9.00;;;5.85;;
62707;SDS011;48769;51.624;5.886;2023-08-31T07:43:17;8.88;;;5.53;;
62707;SDS011;48769;51.624;5.886;2023-08-31T07:45:43;12.95;;;5.22;;
62707;SDS011;48769;51.624;5.886;2023-08-31T07:48:08;11.13;;;5.22;;
62707;SDS011;48769;51.624;5.886;2023-08-31T07:50:34;12.32;;;6.65;;
62707;SDS011;48769;51.624;5.886;2023-08-31T07:53:02;9.60;;;5.88;;
62707;SDS011;48769;51.624;5.886;2023-08-31T07:55:28;8.95;;;5.57;;
62707;SDS011;48769;51.624;5.886;2023-08-31T07:57:54;8.52;;;5.80;;
62707;SDS011;48769;51.624;5.886;2023-08-31T08:00:19;7.47;;;5.65;;
62707;SDS011;48769;51.624;5.886;2023-08-31T08:02:45;9.93;;;5.30;;
62707;SDS011;48769;51.624;5.886;2023-08-31T08:05:11;11.45;;;5.78;;
62707;SDS011;48769;51.624;5.886;2023-08-31T08:07:36;12.43;;;6.10;;
62707;SDS011;48769;51.624;5.886;2023-08-31T08:10:02;8.70;;;5.78;;
62707;SDS011;48769;51.624;5.886;2023-08-31T08:12:27;7.95;;;6.10;;
62707;SDS011;48769;51.624;5.886;2023-08-31T08:15:01;7.95;;;5.65;;
62707;SDS011;48769;51.624;5.886;2023-08-31T08:17:27;11.73;;;6.03;;
62707;SDS011;48769;51.624;5.886;2023-08-31T08:19:52;10.18;;;5.70;;
62707;SDS011;48769;51.624;5.886;2023-08-31T08:22:18;10.30;;;6.38;;
62707;SDS011;48769;51.624;5.886;2023-08-31T08:24:43;8.73;;;5.40;;
62707;SDS011;48769;51.624;5.886;2023-08-31T08:27:08;11.07;;;6.00;;
62707;SDS011;48769;51.624;5.886;2023-08-31T08:29:33;9.75;;;5.80;;
62707;SDS011;48769;51.624;5.886;2023-08-31T08:31:59;7.82;;;6.03;;
62707;SDS011;48769;51.624;5.886;2023-08-31T08:34:25;12.10;;;5.30;;
62707;SDS011;48769;51.624;5.886;2023-08-31T08:36:51;10.18;;;6.43;;
62707;SDS011;48769;51.624;5.886;2023-08-31T08:39:17;10.98;;;6.13;;
62707;SDS011;48769;51.624;5.886;2023-08-31T08:41:42;9.23;;;6.13;;
62707;SDS011;48769;51.624;5.886;2023-08-31T08:44:09;9.13;;;6.88;;
62707;SDS011;48769;51.624;5.886;2023-08-31T08:46:35;11.38;;;6.53;;
62707;SDS011;48769;51.624;5.886;2023-08-31T08:49:02;8.13;;;6.25;;
62707;SDS011;48769;51.624;5.886;2023-08-31T08:51:30;7.82;;;5.55;;
62707;SDS011;48769;51.624;5.886;2023-08-31T08:53:56;10.65;;;5.47;;
62707;SDS011;48769;51.624;5.886;2023-08-31T08:56:25;13.38;;;6.32;;
62707;SDS011;48769;51.624;5.886;2023-08-31T08:58:51;12.35;;;6.25;;
62707;SDS011;48769;51.624;5.886;2023-08-31T09:01:16;13.45;;;5.40;;
62707;SDS011;48769;51.624;5.886;2023-08-31T09:03:42;9.23;;;5.63;;
62707;SDS011;48769;51.624;5.886;2023-08-31T09:06:08;8.93;;;5.00;;
62707;SDS011;48769;51.624;5.886;2023-08-31T09:08:35;8.10;;;4.80;;
62707;SDS011;48769;51.624;5.886;2023-08-31T09:11:02;8.68;;;4.63;;
62707;SDS011;48769;51.624;5.886;2023-08-31T09:13:28;12.70;;;5.78;;
62707;SDS011;48769;51.624;5.886;2023-08-31T09:15:54;10.80;;;5.63;;
62707;SDS011;48769;51.624;5.886;2023-08-31T09:18:25;9.38;;;5.30;;
62707;SDS011;48769;51.624;5.886;2023-08-31T09:20:50;9.77;;;4.97;;
62707;SDS011;48769;51.624;5.886;2023-08-31T09:23:17;10.80;;;5.28;;
62707;SDS011;48769;51.624;5.886;2023-08-31T09:25:48;9.43;;;5.25;;
62707;SDS011;48769;51.624;5.886;2023-08-31T09:28:19;6.95;;;4.82;;
62707;SDS011;48769;51.624;5.886;2023-08-31T09:30:46;9.10;;;4.85;;
62707;SDS011;48769;51.624;5.886;2023-08-31T09:33:13;7.82;;;4.13;;
62707;SDS011;48769;51.624;5.886;2023-08-31T09:35:45;8.95;;;4.20;;
62707;SDS011;48769;51.624;5.886;2023-08-31T09:38:13;10.63;;;3.88;;
62707;SDS011;48769;51.624;5.886;2023-08-31T09:40:39;15.75;;;4.75;;
62707;SDS011;48769;51.624;5.886;2023-08-31T09:43:05;9.85;;;4.65;;
62707;SDS011;48769;51.624;5.886;2023-08-31T09:45:31;6.47;;;3.65;;
62707;SDS011;48769;51.624;5.886;2023-08-31T09:48:01;6.20;;;3.83;;
62707;SDS011;48769;51.624;5.886;2023-08-31T09:50:31;8.05;;;3.97;;
62707;SDS011;48769;51.624;5.886;2023-08-31T09:53:07;6.45;;;3.70;;
62707;SDS011;48769;51.624;5.886;2023-08-31T09:55:34;7.35;;;2.97;;
62707;SDS011;48769;51.624;5.886;2023-08-31T09:58:03;8.05;;;2.78;;
62707;SDS011;48769;51.624;5.886;2023-08-31T10:00:31;4.95;;;2.05;;
62707;SDS011;48769;51.624;5.886;2023-08-31T10:02:59;7.00;;;2.70;;
62707;SDS011;48769;51.624;5.886;2023-08-31T10:05:27;7.70;;;3.22;;
62707;SDS011;48769;51.624;5.886;2023-08-31T10:07:53;4.13;;;2.70;;
62707;SDS011;48769;51.624;5.886;2023-08-31T10:10:19;5.63;;;3.28;;
62707;SDS011;48769;51.624;5.886;2023-08-31T10:12:48;11.13;;;4.00;;
62707;SDS011;48769;51.624;5.886;2023-08-31T10:15:14;7.63;;;3.33;;
62707;SDS011;48769;51.624;5.886;2023-08-31T10:17:41;9.00;;;3.90;;
62707;SDS011;48769;51.624;5.886;2023-08-31T10:20:19;10.77;;;3.42;;
62707;SDS011;48769;51.624;5.886;2023-08-31T10:22:45;8.10;;;3.83;;
62707;SDS011;48769;51.624;5.886;2023-08-31T10:25:10;7.18;;;3.63;;
62707;SDS011;48769;51.624;5.886;2023-08-31T10:27:37;3.85;;;3.00;;
62707;SDS011;48769;51.624;5.886;2023-08-31T10:33:12;10.75;;;3.67;;
62707;SDS011;48769;51.624;5.886;2023-08-31T10:35:52;7.90;;;3.70;;
62707;SDS011;48769;51.624;5.886;2023-08-31T10:38:23;5.72;;;3.67;;
62707;SDS011;48769;51.624;5.886;2023-08-31T10:46:29;6.50;;;3.30;;
62707;SDS011;48769;51.624;5.886;2023-08-31T10:48:59;7.57;;;3.55;;
62707;SDS011;48769;51.624;5.886;2023-08-31T10:51:34;6.30;;;3.38;;
62707;SDS011;48769;51.624;5.886;2023-08-31T10:54:06;5.10;;;3.13;;
62707;SDS011;48769;51.624;5.886;2023-08-31T10:56:32;9.00;;;3.85;;
62707;SDS011;48769;51.624;5.886;2023-08-31T10:58:58;6.38;;;3.10;;
62707;SDS011;48769;51.624;5.886;2023-08-31T11:04:22;6.28;;;2.67;;
62707;SDS011;48769;51.624;5.886;2023-08-31T11:06:50;7.22;;;2.90;;
62707;SDS011;48769;51.624;5.886;2023-08-31T11:09:41;6.10;;;2.97;;
62707;SDS011;48769;51.624;5.886;2023-08-31T11:12:08;6.40;;;2.60;;
62707;SDS011;48769;51.624;5.886;2023-08-31T11:14:33;6.00;;;2.35;;
62707;SDS011;48769;51.624;5.886;2023-08-31T11:16:59;4.43;;;2.45;;
62707;SDS011;48769;51.624;5.886;2023-08-31T11:19:26;8.45;;;3.40;;
62707;SDS011;48769;51.624;5.886;2023-08-31T11:21:52;10.73;;;2.97;;
62707;SDS011;48769;51.624;5.886;2023-08-31T11:24:19;7.22;;;3.00;;
62707;SDS011;48769;51.624;5.886;2023-08-31T11:26:47;7.82;;;2.75;;
62707;SDS011;48769;51.624;5.886;2023-08-31T11:29:14;4.70;;;2.97;;
62707;SDS011;48769;51.624;5.886;2023-08-31T11:31:40;7.78;;;3.30;;
62707;SDS011;48769;51.624;5.886;2023-08-31T11:34:05;7.95;;;3.65;;
62707;SDS011;48769;51.624;5.886;2023-08-31T11:36:32;10.18;;;3.65;;
62707;SDS011;48769;51.624;5.886;2023-08-31T11:38:57;6.47;;;2.80;;
62707;SDS011;48769;51.624;5.886;2023-08-31T11:41:23;5.70;;;2.55;;
62707;SDS011;48769;51.624;5.886;2023-08-31T11:43:48;6.45;;;3.35;;
62707;SDS011;48769;51.624;5.886;2023-08-31T11:46:15;5.13;;;3.22;;
62707;SDS011;48769;51.624;5.886;2023-08-31T11:48:42;10.07;;;3.47;;
62707;SDS011;48769;51.624;5.886;2023-08-31T11:51:11;7.90;;;3.33;;
62707;SDS011;48769;51.624;5.886;2023-08-31T11:53:37;6.88;;;3.40;;
62707;SDS011;48769;51.624;5.886;2023-08-31T11:56:03;7.38;;;4.00;;
62707;SDS011;48769;51.624;5.886;2023-08-31T11:58:29;6.05;;;3.67;;
62707;SDS011;48769;51.624;5.886;2023-08-31T12:00:56;5.38;;;2.88;;
62707;SDS011;48769;51.624;5.886;2023-08-31T12:03:22;6.78;;;2.97;;
62707;SDS011;48769;51.624;5.886;2023-08-31T12:05:51;8.38;;;3.95;;
62707;SDS011;48769;51.624;5.886;2023-08-31T12:08:25;7.35;;;3.85;;
62707;SDS011;48769;51.624;5.886;2023-08-31T12:10:51;8.18;;;4.00;;
62707;SDS011;48769;51.624;5.886;2023-08-31T12:13:16;12.25;;;4.38;;
62707;SDS011;48769;51.624;5.886;2023-08-31T12:15:42;5.65;;;4.28;;
62707;SDS011;48769;51.624;5.886;2023-08-31T12:18:10;8.30;;;4.25;;
62707;SDS011;48769;51.624;5.886;2023-08-31T12:20:46;9.10;;;4.53;;
62707;SDS011;48769;51.624;5.886;2023-08-31T12:23:19;7.97;;;4.45;;
62707;SDS011;48769;51.624;5.886;2023-08-31T12:25:47;8.57;;;4.75;;
62707;SDS011;48769;51.624;5.886;2023-08-31T12:28:13;6.13;;;4.80;;
62707;SDS011;48769;51.624;5.886;2023-08-31T12:30:41;6.03;;;3.95;;
62707;SDS011;48769;51.624;5.886;2023-08-31T12:33:09;9.00;;;4.35;;
62707;SDS011;48769;51.624;5.886;2023-08-31T12:35:35;6.95;;;4.35;;
62707;SDS011;48769;51.624;5.886;2023-08-31T12:38:00;9.45;;;5.13;;
62707;SDS011;48769;51.624;5.886;2023-08-31T12:40:25;6.57;;;4.50;;
62707;SDS011;48769;51.624;5.886;2023-08-31T12:42:50;9.57;;;4.80;;
62707;SDS011;48769;51.624;5.886;2023-08-31T12:45:15;5.95;;;4.40;;
62707;SDS011;48769;51.624;5.886;2023-08-31T12:47:41;6.60;;;4.28;;
62707;SDS011;48769;51.624;5.886;2023-08-31T12:50:07;9.32;;;4.47;;
62707;SDS011;48769;51.624;5.886;2023-08-31T12:52:32;11.15;;;6.18;;
62707;SDS011;48769;51.624;5.886;2023-08-31T12:54:58;11.02;;;6.75;;
62707;SDS011;48769;51.624;5.886;2023-08-31T12:57:23;16.88;;;8.32;;
62707;SDS011;48769;51.624;5.886;2023-08-31T12:59:48;10.07;;;7.30;;
62707;SDS011;48769;51.624;5.886;2023-08-31T13:02:13;12.23;;;8.10;;
62707;SDS011;48769;51.624;5.886;2023-08-31T13:04:39;11.38;;;8.52;;
62707;SDS011;48769;51.624;5.886;2023-08-31T13:07:05;10.52;;;7.80;;
62707;SDS011;48769;51.624;5.886;2023-08-31T13:09:30;16.33;;;7.65;;
62707;SDS011;48769;51.624;5.886;2023-08-31T13:11:56;11.15;;;8.80;;
62707;SDS011;48769;51.624;5.886;2023-08-31T13:14:21;11.32;;;8.48;;
62707;SDS011;48769;51.624;5.886;2023-08-31T13:16:47;11.43;;;7.78;;
62707;SDS011;48769;51.624;5.886;2023-08-31T13:19:12;9.82;;;7.60;;
62707;SDS011;48769;51.624;5.886;2023-08-31T13:21:37;9.38;;;7.07;;
62707;SDS011;48769;51.624;5.886;2023-08-31T13:24:03;9.32;;;7.95;;
62707;SDS011;48769;51.624;5.886;2023-08-31T13:26:28;9.90;;;7.70;;
62707;SDS011;48769;51.624;5.886;2023-08-31T13:28:54;13.20;;;8.43;;
62707;SDS011;48769;51.624;5.886;2023-08-31T13:31:19;10.32;;;7.80;;
62707;SDS011;48769;51.624;5.886;2023-08-31T13:33:44;10.90;;;7.28;;
62707;SDS011;48769;51.624;5.886;2023-08-31T13:36:10;7.78;;;7.07;;
62707;SDS011;48769;51.624;5.886;2023-08-31T13:38:36;10.90;;;7.75;;
62707;SDS011;48769;51.624;5.886;2023-08-31T13:41:02;8.70;;;7.38;;
62707;SDS011;48769;51.624;5.886;2023-08-31T13:43:28;8.57;;;6.90;;
62707;SDS011;48769;51.624;5.886;2023-08-31T13:45:53;12.57;;;7.45;;
62707;SDS011;48769;51.624;5.886;2023-08-31T13:48:19;11.07;;;6.97;;
62707;SDS011;48769;51.624;5.886;2023-08-31T13:50:45;8.77;;;6.57;;
62707;SDS011;48769;51.624;5.886;2023-08-31T13:53:11;9.82;;;7.32;;
62707;SDS011;48769;51.624;5.886;2023-08-31T13:55:37;9.65;;;7.95;;
62707;SDS011;48769;51.624;5.886;2023-08-31T13:58:05;13.07;;;7.85;;
62707;SDS011;48769;51.624;5.886;2023-08-31T14:00:32;9.45;;;8.13;;
62707;SDS011;48769;51.624;5.886;2023-08-31T14:02:58;11.63;;;8.02;;
62707;SDS011;48769;51.624;5.886;2023-08-31T14:05:27;11.57;;;8.82;;
62707;SDS011;48769;51.624;5.886;2023-08-31T14:07:52;11.38;;;8.00;;
62707;SDS011;48769;51.624;5.886;2023-08-31T14:10:18;13.82;;;9.73;;
62707;SDS011;48769;51.624;5.886;2023-08-31T14:12:46;14.00;;;9.85;;
62707;SDS011;48769;51.624;5.886;2023-08-31T14:15:11;12.23;;;10.00;;
62707;SDS011;48769;51.624;5.886;2023-08-31T14:17:37;12.10;;;9.07;;
62707;SDS011;48769;51.624;5.886;2023-08-31T14:20:02;14.60;;;9.82;;
62707;SDS011;48769;51.624;5.886;2023-08-31T14:22:31;12.88;;;9.48;;
62707;SDS011;48769;51.624;5.886;2023-08-31T14:24:57;15.73;;;9.32;;
62707;SDS011;48769;51.624;5.886;2023-08-31T14:27:22;11.23;;;8.77;;
62707;SDS011;48769;51.624;5.886;2023-08-31T14:29:50;9.20;;;8.25;;
62707;SDS011;48769;51.624;5.886;2023-08-31T14:32:15;10.45;;;7.97;;
62707;SDS011;48769;51.624;5.886;2023-08-31T14:34:41;11.10;;;7.88;;
62707;SDS011;48769;51.624;5.886;2023-08-31T14:37:06;9.95;;;6.68;;
62707;SDS011;48769;51.624;5.886;2023-08-31T14:39:32;8.93;;;6.57;;
62707;SDS011;48769;51.624;5.886;2023-08-31T14:41:57;10.50;;;7.15;;
62707;SDS011;48769;51.624;5.886;2023-08-31T14:44:23;9.95;;;6.72;;
62707;SDS011;48769;51.624;5.886;2023-08-31T14:46:48;9.85;;;6.90;;
62707;SDS011;48769;51.624;5.886;2023-08-31T14:49:14;7.72;;;5.68;;
62707;SDS011;48769;51.624;5.886;2023-08-31T14:51:39;11.73;;;6.35;;
62707;SDS011;48769;51.624;5.886;2023-08-31T14:54:05;6.68;;;5.20;;
62707;SDS011;48769;51.624;5.886;2023-08-31T14:56:30;7.30;;;4.78;;
62707;SDS011;48769;51.624;5.886;2023-08-31T14:58:56;8.65;;;5.38;;
62707;SDS011;48769;51.624;5.886;2023-08-31T15:01:21;8.48;;;4.78;;
62707;SDS011;48769;51.624;5.886;2023-08-31T15:03:48;8.85;;;5.43;;
62707;SDS011;48769;51.624;5.886;2023-08-31T15:06:13;9.20;;;5.45;;
62707;SDS011;48769;51.624;5.886;2023-08-31T15:08:39;7.18;;;5.50;;
62707;SDS011;48769;51.624;5.886;2023-08-31T15:11:06;7.18;;;5.80;;
62707;SDS011;48769;51.624;5.886;2023-08-31T15:13:32;10.85;;;6.70;;
62707;SDS011;48769;51.624;5.886;2023-08-31T15:15:58;8.75;;;6.68;;
62707;SDS011;48769;51.624;5.886;2023-08-31T15:18:24;8.93;;;7.15;;
62707;SDS011;48769;51.624;5.886;2023-08-31T15:20:53;10.57;;;7.63;;
62707;SDS011;48769;51.624;5.886;2023-08-31T15:23:19;10.23;;;7.38;;
62707;SDS011;48769;51.624;5.886;2023-08-31T15:25:44;11.38;;;7.72;;
62707;SDS011;48769;51.624;5.886;2023-08-31T15:28:10;8.45;;;6.78;;
62707;SDS011;48769;51.624;5.886;2023-08-31T15:30:35;10.40;;;6.53;;
62707;SDS011;48769;51.624;5.886;2023-08-31T15:33:01;7.38;;;6.55;;
62707;SDS011;48769;51.624;5.886;2023-08-31T15:35:30;10.88;;;6.85;;
62707;SDS011;48769;51.624;5.886;2023-08-31T15:37:56;10.48;;;6.70;;
62707;SDS011;48769;51.624;5.886;2023-08-31T15:40:21;13.85;;;6.57;;
62707;SDS011;48769;51.624;5.886;2023-08-31T15:42:47;13.23;;;7.28;;